Time;durP1;ratioP1;P1;durP2;ratioP2;P2;SDS_P1;SDS_P2;PMS_P1;PMS_P2;Temp;Humidity;BMP_temperature;BMP_pressure;BME280_temperature;BME280_humidity;BME280_pressure;Samples;Min_cycle;Max_cycle;Signal;HPM_P1;HPM_P2
2022/02/02 00:01:18;;;;;;;1.60;1.30;;;8.30;98.20;;;;;;4984763;28;20467;-76
2022/02/02 00:03:51;;;;;;;1.60;1.17;;;8.30;98.20;;;;;;4998591;28;20485;-76
2022/02/02 00:06:23;;;;;;;1.63;1.20;;;8.30;98.20;;;;;;4986104;28;20542;-75
2022/02/02 00:08:57;;;;;;;1.63;1.20;;;8.30;98.20;;;;;;5017162;28;20999;-76
2022/02/02 00:14:33;;;;;;;1.60;1.20;;;8.30;98.20;;;;;;4986510;28;20772;-75
2022/02/02 00:17:04;;;;;;;1.60;1.20;;;8.20;98.20;;;;;;4990374;28;20471;-75
2022/02/02 00:19:43;;;;;;;1.60;1.10;;;8.20;98.20;;;;;;4992753;28;20500;-75
2022/02/02 00:22:14;;;;;;;1.60;1.20;;;8.20;98.20;;;;;;4987663;28;20487;-77
2022/02/02 00:24:56;;;;;;;1.60;1.20;;;8.20;98.20;;;;;;4988275;28;20496;-75
2022/02/02 00:27:25;;;;;;;1.60;1.20;;;8.10;98.20;;;;;;4975043;28;20500;-75
2022/02/02 00:29:57;;;;;;;1.60;1.30;;;8.10;98.20;;;;;;4989771;28;20465;-75
2022/02/02 00:32:38;;;;;;;1.70;1.30;;;8.10;98.20;;;;;;4991045;28;21060;-75
2022/02/02 00:35:06;;;;;;;1.63;1.30;;;8.10;98.20;;;;;;5009120;28;20491;-75
2022/02/02 00:37:33;;;;;;;1.60;1.20;;;8.10;98.20;;;;;;4987870;28;20526;-75
2022/02/02 00:40:00;;;;;;;1.60;1.27;;;8.00;98.20;;;;;;5004943;28;20464;-75
2022/02/02 00:42:29;;;;;;;1.63;1.20;;;8.00;98.20;;;;;;4995844;28;20826;-75
2022/02/02 00:44:57;;;;;;;1.60;1.20;;;8.00;98.20;;;;;;5000560;28;20859;-76
2022/02/02 00:47:25;;;;;;;1.60;1.30;;;7.90;98.20;;;;;;4991370;28;20480;-77
2022/02/02 00:49:54;;;;;;;1.60;1.20;;;7.90;98.20;;;;;;5012321;28;20964;-77
2022/02/02 00:52:22;;;;;;;1.67;1.30;;;7.90;98.20;;;;;;4985978;28;20941;-75
2022/02/02 00:54:50;;;;;;;1.60;1.20;;;7.80;98.20;;;;;;4986516;28;20478;-75
2022/02/02 00:57:18;;;;;;;1.60;1.20;;;7.80;98.20;;;;;;4993926;28;20537;-75
2022/02/02 00:59:48;;;;;;;1.60;1.20;;;7.80;98.20;;;;;;4987995;28;20460;-74
2022/02/02 01:02:15;;;;;;;1.60;1.20;;;7.80;98.20;;;;;;4990517;28;20541;-74
2022/02/02 01:04:43;;;;;;;1.63;1.30;;;7.80;98.20;;;;;;4995376;28;20488;-75
2022/02/02 01:07:16;;;;;;;1.70;1.30;;;7.80;98.20;;;;;;4987467;28;20786;-74
2022/02/02 01:09:48;;;;;;;1.63;1.30;;;7.80;98.20;;;;;;4995351;28;20472;-74
2022/02/02 01:20:56;;;;;;;1.60;1.20;;;7.70;98.20;;;;;;5062099;27;20441;-75
2022/02/02 01:28:55;;;;;;;1.63;1.30;;;7.60;98.20;;;;;;5088200;28;20449;-76
2022/02/02 01:31:25;;;;;;;1.60;1.20;;;7.60;98.20;;;;;;5070290;28;20563;-75
2022/02/02 01:33:52;;;;;;;1.60;1.20;;;7.50;98.20;;;;;;5093038;28;21052;-76
2022/02/02 01:36:20;;;;;;;1.60;1.20;;;7.50;98.20;;;;;;5074561;28;20476;-75
2022/02/02 01:38:49;;;;;;;1.63;1.20;;;7.40;98.20;;;;;;5091542;28;20484;-75
2022/02/02 01:41:23;;;;;;;1.70;1.30;;;7.40;98.20;;;;;;5072767;28;20471;-74
2022/02/02 01:43:58;;;;;;;1.60;1.23;;;7.40;98.20;;;;;;5106533;28;20483;-75
2022/02/02 01:46:30;;;;;;;1.60;1.20;;;7.50;98.20;;;;;;5077557;28;20564;-78
2022/02/02 01:49:05;;;;;;;1.60;1.30;;;7.50;98.20;;;;;;5098832;28;20501;-74
2022/02/02 01:51:51;;;;;;;1.60;1.10;;;7.50;98.20;;;;;;5068891;28;20478;-76
2022/02/02 01:54:33;;;;;;;1.60;1.20;;;7.50;98.20;;;;;;5091012;28;21021;-76
2022/02/02 01:57:06;;;;;;;1.60;1.20;;;7.50;98.20;;;;;;5080716;28;21034;-77
2022/02/02 01:59:39;;;;;;;1.60;1.20;;;7.60;98.20;;;;;;5083167;28;20856;-75
2022/02/02 02:02:10;;;;;;;1.63;1.30;;;7.60;98.20;;;;;;5082716;28;20920;-75
2022/02/02 02:04:38;;;;;;;1.60;1.20;;;7.60;98.20;;;;;;5083811;28;20907;-75
2022/02/02 02:07:06;;;;;;;1.60;1.30;;;7.60;98.20;;;;;;5090063;27;20532;-75
2022/02/02 02:09:34;;;;;;;1.60;1.20;;;7.60;98.20;;;;;;5086042;28;20467;-76
2022/02/02 02:12:03;;;;;;;1.60;1.20;;;7.60;98.20;;;;;;5078281;28;20537;-76
2022/02/02 02:14:45;;;;;;;1.63;1.30;;;7.70;98.20;;;;;;5090140;28;20550;-75
2022/02/02 02:17:17;;;;;;;1.60;1.30;;;7.70;98.20;;;;;;5072411;28;20486;-75
2022/02/02 02:19:48;;;;;;;1.60;1.30;;;7.70;98.20;;;;;;5073918;28;20564;-75
2022/02/02 02:22:17;;;;;;;1.60;1.20;;;7.70;98.20;;;;;;5091262;27;20471;-74
2022/02/02 02:24:46;;;;;;;1.60;1.20;;;7.70;98.20;;;;;;5081160;28;20535;-75
2022/02/02 02:27:16;;;;;;;1.70;1.30;;;7.80;98.20;;;;;;5078025;28;20508;-75
2022/02/02 02:30:05;;;;;;;1.70;1.40;;;7.80;98.20;;;;;;5064976;28;20488;-77
2022/02/02 02:33:03;;;;;;;1.63;1.20;;;7.80;98.20;;;;;;5081634;28;20482;-75
2022/02/02 02:58:06;;;;;;;1.60;1.30;;;7.90;98.20;;;;;;5006093;28;20493;-77
2022/02/02 03:00:50;;;;;;;1.60;1.30;;;7.80;98.20;;;;;;4991675;28;20487;-75
2022/02/02 03:30:56;;;;;;;1.63;1.30;;;7.80;98.20;;;;;;4997053;28;20867;-75
2022/02/02 03:55:36;;;;;;;1.60;1.20;;;7.80;98.20;;;;;;4999487;28;20518;-75
2022/02/02 03:58:22;;;;;;;1.60;1.20;;;7.80;98.20;;;;;;5009657;28;20517;-76
2022/02/02 04:01:11;;;;;;;1.60;1.20;;;7.80;98.20;;;;;;4982439;28;20540;-75
2022/02/02 04:04:07;;;;;;;1.60;1.20;;;7.80;98.20;;;;;;5003457;28;20453;-75
2022/02/02 04:06:43;;;;;;;1.60;1.20;;;7.80;98.20;;;;;;4994236;28;20869;-78
2022/02/02 04:09:10;;;;;;;1.60;1.20;;;7.80;98.20;;;;;;5017512;28;20471;-75
2022/02/02 04:11:44;;;;;;;2.20;1.93;;;7.80;98.20;;;;;;4995926;28;20499;-77
2022/02/02 04:51:18;;;;;;;1.60;1.20;;;7.70;98.20;;;;;;5006593;28;20820;-75
2022/02/02 04:56:09;;;;;;;1.60;1.30;;;7.70;98.20;;;;;;5055956;27;21179;-74
2022/02/02 04:58:46;;;;;;;1.60;1.20;;;7.70;98.20;;;;;;5063883;28;20465;-75
2022/02/02 05:06:55;;;;;;;1.70;1.30;;;7.70;98.20;;;;;;5058420;28;20483;-75
2022/02/02 05:09:35;;;;;;;1.70;1.40;;;7.60;98.20;;;;;;5065874;28;20470;-76
2022/02/02 05:17:50;;;;;;;1.67;1.30;;;7.60;98.20;;;;;;5066274;28;20465;-75
2022/02/02 05:53:30;;;;;;;1.67;1.27;;;7.50;98.20;;;;;;5005441;28;20517;-75
2022/02/02 05:56:01;;;;;;;1.67;1.30;;;7.50;98.20;;;;;;5043930;28;20489;-74
2022/02/02 05:58:29;;;;;;;1.63;1.30;;;7.50;98.20;;;;;;5043135;28;20477;-75
2022/02/02 06:01:00;;;;;;;1.60;1.40;;;7.50;98.20;;;;;;5038826;28;20464;-73
2022/02/02 06:03:36;;;;;;;1.60;1.23;;;7.50;98.20;;;;;;5042266;28;20462;-74
2022/02/02 06:06:03;;;;;;;2.50;2.30;;;7.50;98.20;;;;;;5042603;28;20485;-74
2022/02/02 06:08:31;;;;;;;1.60;1.20;;;7.50;98.20;;;;;;5035059;28;20471;-74
2022/02/02 06:11:03;;;;;;;1.67;1.30;;;7.50;98.20;;;;;;5021207;28;20506;-74
2022/02/02 06:13:39;;;;;;;1.60;1.20;;;7.50;98.20;;;;;;5030826;28;20460;-75
2022/02/02 06:16:08;;;;;;;1.67;1.37;;;7.50;98.20;;;;;;5018941;28;20903;-74
2022/02/02 06:18:37;;;;;;;1.60;1.20;;;7.50;98.20;;;;;;5027247;28;20459;-74
2022/02/02 06:21:06;;;;;;;1.60;1.20;;;7.50;98.20;;;;;;5020605;28;20478;-74
2022/02/02 06:23:38;;;;;;;1.60;1.30;;;7.50;98.20;;;;;;5031216;28;20492;-75
2022/02/02 06:26:09;;;;;;;1.60;1.20;;;7.50;98.20;;;;;;5016978;28;20541;-75
2022/02/02 06:28:36;;;;;;;1.67;1.30;;;7.50;98.20;;;;;;5022335;28;20463;-74
2022/02/02 06:31:05;;;;;;;1.60;1.30;;;7.50;98.20;;;;;;5019064;28;20860;-74
2022/02/02 06:33:35;;;;;;;1.60;1.30;;;7.50;98.20;;;;;;5024703;28;20745;-74
2022/02/02 06:36:03;;;;;;;1.63;1.20;;;7.50;98.20;;;;;;5020392;28;20491;-74
2022/02/02 06:38:31;;;;;;;1.63;1.30;;;7.50;98.20;;;;;;5027348;28;20460;-73
2022/02/02 06:40:59;;;;;;;1.60;1.20;;;7.50;98.20;;;;;;5022498;28;20862;-74
2022/02/02 06:43:26;;;;;;;1.60;1.20;;;7.50;98.20;;;;;;5028168;28;20455;-75
2022/02/02 06:45:55;;;;;;;1.60;1.20;;;7.50;98.20;;;;;;5027928;28;20520;-74
2022/02/02 06:48:21;;;;;;;1.60;1.20;;;7.50;98.20;;;;;;5027226;28;20482;-75
2022/02/02 06:50:59;;;;;;;1.63;1.30;;;7.50;98.20;;;;;;5023330;28;20650;-74
2022/02/02 06:53:34;;;;;;;1.60;1.30;;;7.50;98.20;;;;;;5027602;28;20888;-75
2022/02/02 06:56:13;;;;;;;1.60;1.20;;;7.50;98.20;;;;;;5016732;28;20525;-75
2022/02/02 06:58:57;;;;;;;1.63;1.23;;;7.40;98.20;;;;;;5027919;28;20467;-76
2022/02/02 07:01:38;;;;;;;1.70;1.30;;;7.40;98.20;;;;;;5016105;28;21022;-74
2022/02/02 07:04:17;;;;;;;1.60;1.30;;;7.40;98.20;;;;;;5026785;28;20460;-75
2022/02/02 07:06:55;;;;;;;1.60;1.30;;;7.40;98.20;;;;;;5015569;28;20878;-74
2022/02/02 07:09:42;;;;;;;1.60;1.20;;;7.40;98.20;;;;;;5027682;28;20489;-75
2022/02/02 07:12:24;;;;;;;1.70;1.40;;;7.40;98.20;;;;;;5025236;28;20487;-74
2022/02/02 07:15:13;;;;;;;1.60;1.27;;;7.40;98.20;;;;;;5029112;28;20491;-74
2022/02/02 07:17:48;;;;;;;1.60;1.27;;;7.40;98.20;;;;;;5016751;28;20488;-73
2022/02/02 07:20:22;;;;;;;1.67;1.30;;;7.40;98.20;;;;;;5041058;28;20562;-74
2022/02/02 07:25:48;;;;;;;1.60;1.17;;;7.40;98.20;;;;;;5027402;28;20951;-75
2022/02/02 07:28:20;;;;;;;1.60;1.20;;;7.40;98.20;;;;;;5002574;28;21026;-73
2022/02/02 07:30:57;;;;;;;1.60;1.30;;;7.40;98.20;;;;;;5032661;28;20462;-74
2022/02/02 07:33:31;;;;;;;1.60;1.20;;;7.40;98.20;;;;;;5025952;28;20974;-74
2022/02/02 07:36:08;;;;;;;2.27;2.03;;;7.40;98.20;;;;;;5020645;28;20865;-74
2022/02/02 07:38:55;;;;;;;1.60;1.20;;;7.40;98.20;;;;;;5029639;28;20459;-73
2022/02/02 07:41:26;;;;;;;1.60;1.20;;;7.40;98.20;;;;;;5022594;28;20521;-74
2022/02/02 07:43:57;;;;;;;1.60;1.30;;;7.40;98.20;;;;;;5031769;28;20514;-74
2022/02/02 07:46:27;;;;;;;1.67;1.30;;;7.40;98.20;;;;;;5018524;28;20479;-73
2022/02/02 07:48:54;;;;;;;1.60;1.20;;;7.30;98.20;;;;;;5027881;28;20839;-73
2022/02/02 07:51:21;;;;;;;1.70;1.50;;;7.40;98.20;;;;;;5015066;28;20473;-74
2022/02/02 07:53:53;;;;;;;1.63;1.30;;;7.40;98.20;;;;;;5027404;28;21381;-74
2022/02/02 07:56:27;;;;;;;1.60;1.20;;;7.40;98.20;;;;;;5028741;28;20495;-74
2022/02/02 07:59:10;;;;;;;1.60;1.20;;;7.40;98.20;;;;;;5041240;28;20566;-75
2022/02/02 08:01:37;;;;;;;1.63;1.30;;;7.40;98.20;;;;;;5024716;28;20925;-75
2022/02/02 08:04:04;;;;;;;1.67;1.37;;;7.40;98.20;;;;;;5025982;28;20554;-74
2022/02/02 08:06:31;;;;;;;1.60;1.20;;;7.40;98.20;;;;;;5024304;28;20578;-75
2022/02/02 08:08:59;;;;;;;1.70;1.30;;;7.50;98.20;;;;;;5033532;28;20512;-74
2022/02/02 08:11:30;;;;;;;1.60;1.30;;;7.50;98.20;;;;;;5025328;28;20478;-75
2022/02/02 08:13:59;;;;;;;1.63;1.20;;;7.60;98.20;;;;;;5027540;28;20546;-76
2022/02/02 08:16:26;;;;;;;1.60;1.20;;;7.60;98.20;;;;;;5024115;28;20873;-73
2022/02/02 08:18:54;;;;;;;1.60;1.20;;;7.70;98.20;;;;;;5032681;28;20498;-75
2022/02/02 08:21:21;;;;;;;1.60;1.20;;;7.70;98.20;;;;;;5033831;28;20474;-73
2022/02/02 08:23:48;;;;;;;1.63;1.30;;;7.80;98.20;;;;;;5029272;28;20466;-74
2022/02/02 08:26:16;;;;;;;1.60;1.20;;;7.80;98.20;;;;;;5015532;28;20496;-74
2022/02/02 08:28:44;;;;;;;1.67;1.30;;;8.00;98.20;;;;;;5024435;28;20538;-74
2022/02/02 08:31:12;;;;;;;1.60;1.20;;;8.00;98.20;;;;;;5023368;28;20489;-75
2022/02/02 08:33:42;;;;;;;1.60;1.30;;;8.00;98.20;;;;;;5023832;28;20536;-74
2022/02/02 08:36:13;;;;;;;1.60;1.20;;;8.00;98.20;;;;;;5021891;28;20486;-74
2022/02/02 08:38:50;;;;;;;1.70;1.30;;;8.10;98.20;;;;;;5028374;28;20463;-73
2022/02/02 08:41:25;;;;;;;1.63;1.30;;;8.20;98.20;;;;;;5016137;28;20560;-73
2022/02/02 08:43:56;;;;;;;1.60;1.20;;;8.30;98.20;;;;;;5020971;28;20455;-73
2022/02/02 08:46:27;;;;;;;1.60;1.20;;;8.30;98.20;;;;;;5017788;28;20527;-76
2022/02/02 08:48:56;;;;;;;1.60;1.27;;;8.40;98.20;;;;;;5023757;28;20459;-75
2022/02/02 08:51:27;;;;;;;1.60;1.20;;;8.40;98.20;;;;;;5021614;28;20572;-76
2022/02/02 08:54:05;;;;;;;1.63;1.20;;;8.50;98.20;;;;;;5026249;28;20470;-76
2022/02/02 08:59:41;;;;;;;1.60;1.20;;;8.70;98.20;;;;;;5029876;28;20707;-76
2022/02/02 09:02:12;;;;;;;1.60;1.20;;;8.80;98.20;;;;;;5020846;28;20553;-75
2022/02/02 09:07:23;;;;;;;1.60;1.30;;;8.90;98.20;;;;;;5015733;28;20506;-75
2022/02/02 09:09:59;;;;;;;1.67;1.30;;;8.90;98.20;;;;;;5025081;28;20470;-76
2022/02/02 09:23:31;;;;;;;1.70;1.20;;;9.10;98.20;;;;;;4971370;28;20481;-75
2022/02/02 09:26:23;;;;;;;1.67;1.23;;;9.20;98.20;;;;;;5019120;28;20575;-75
2022/02/02 09:31:49;;;;;;;1.70;1.30;;;9.20;98.20;;;;;;5015820;28;20877;-73
2022/02/02 09:34:18;;;;;;;1.70;1.20;;;9.20;98.20;;;;;;5028882;28;20461;-75
2022/02/02 09:36:45;;;;;;;1.70;1.30;;;9.20;98.20;;;;;;5013402;28;20870;-75
2022/02/02 09:39:19;;;;;;;1.60;1.20;;;9.30;98.20;;;;;;5015598;28;20558;-76
2022/02/02 09:41:48;;;;;;;1.60;1.20;;;9.30;98.20;;;;;;5010771;28;21033;-75
2022/02/02 09:44:21;;;;;;;2.13;1.73;;;9.40;98.20;;;;;;5024495;28;20470;-76
2022/02/02 09:46:56;;;;;;;1.60;1.10;;;9.40;98.20;;;;;;5024304;28;20491;-76
2022/02/02 09:49:28;;;;;;;1.60;1.10;;;9.40;98.20;;;;;;5028355;28;20511;-75
2022/02/02 09:52:00;;;;;;;1.70;1.20;;;9.40;98.20;;;;;;5028994;28;20512;-75
2022/02/02 09:54:33;;;;;;;1.60;1.20;;;9.40;98.20;;;;;;5026424;28;20528;-76
2022/02/02 10:02:34;;;;;;;1.63;1.20;;;9.50;98.20;;;;;;5011316;28;20866;-76
2022/02/02 10:05:08;;;;;;;1.67;1.20;;;9.50;98.20;;;;;;5040776;28;20477;-75
2022/02/02 10:10:47;;;;;;;1.60;1.10;;;9.60;98.20;;;;;;5023612;28;20847;-74
2022/02/02 10:13:22;;;;;;;1.60;1.10;;;9.60;98.20;;;;;;5017831;28;20591;-73
2022/02/02 10:15:52;;;;;;;1.67;1.30;;;9.60;98.20;;;;;;5015791;28;20585;-74
2022/02/02 10:18:21;;;;;;;1.63;1.20;;;9.60;98.20;;;;;;5024726;28;20482;-74
2022/02/02 10:20:52;;;;;;;1.60;1.10;;;9.50;98.20;;;;;;5021114;28;20475;-73
2022/02/02 10:23:24;;;;;;;1.60;1.10;;;9.50;98.20;;;;;;5024356;28;20917;-73
2022/02/02 10:25:57;;;;;;;1.63;1.20;;;9.40;98.20;;;;;;5020978;28;20483;-75
2022/02/02 10:28:26;;;;;;;1.70;1.17;;;9.40;98.20;;;;;;5030764;28;20466;-75
2022/02/02 10:30:56;;;;;;;1.70;1.37;;;9.30;98.20;;;;;;5029006;28;20579;-76
2022/02/02 10:33:26;;;;;;;1.67;1.20;;;9.20;98.20;;;;;;5023638;28;20477;-75
2022/02/02 10:35:56;;;;;;;1.60;1.13;;;9.20;98.20;;;;;;5012530;28;20593;-76
2022/02/02 10:38:27;;;;;;;1.63;1.20;;;9.20;98.20;;;;;;5025010;28;20497;-75
2022/02/02 10:41:02;;;;;;;1.60;1.17;;;9.20;98.20;;;;;;5016258;28;20464;-75
2022/02/02 10:43:35;;;;;;;1.60;1.10;;;9.20;98.20;;;;;;5024677;28;20466;-75
2022/02/02 10:46:15;;;;;;;1.60;1.20;;;9.20;98.20;;;;;;5014201;28;20475;-75
2022/02/02 10:48:46;;;;;;;1.60;1.20;;;9.20;98.20;;;;;;5022937;28;20479;-75
2022/02/02 10:51:21;;;;;;;1.67;1.20;;;9.30;98.20;;;;;;5017621;28;20481;-75
2022/02/02 10:54:12;;;;;;;1.60;1.20;;;9.30;98.20;;;;;;5023128;28;20478;-74
2022/02/02 10:56:46;;;;;;;1.60;1.20;;;9.40;98.20;;;;;;5017469;28;20569;-75
2022/02/02 10:59:22;;;;;;;1.70;1.33;;;9.40;98.20;;;;;;5028572;28;20467;-75
2022/02/02 11:07:17;;;;;;;1.60;1.10;;;9.60;98.20;;;;;;5017581;28;20567;-75
2022/02/02 11:09:46;;;;;;;1.67;1.20;;;9.70;98.20;;;;;;5023161;28;20470;-74
2022/02/02 11:12:14;;;;;;;1.60;1.10;;;9.80;98.20;;;;;;5016051;28;21005;-75
2022/02/02 11:14:48;;;;;;;1.60;1.10;;;9.80;98.20;;;;;;5024490;28;20459;-75
2022/02/02 11:17:23;;;;;;;1.60;1.10;;;9.90;98.20;;;;;;5013233;28;20482;-74
2022/02/02 11:19:53;;;;;;;1.67;1.20;;;10.00;98.20;;;;;;5026510;28;20463;-74
2022/02/02 11:22:30;;;;;;;1.63;1.20;;;10.10;98.20;;;;;;5015178;28;20483;-74
2022/02/02 11:24:58;;;;;;;1.63;1.10;;;10.20;98.20;;;;;;5025611;28;20463;-74
2022/02/02 11:27:37;;;;;;;1.70;1.20;;;10.30;98.20;;;;;;5010392;28;20523;-73
2022/02/02 11:30:06;;;;;;;1.60;1.20;;;10.50;98.20;;;;;;5025509;28;20900;-75
2022/02/02 11:32:43;;;;;;;1.60;1.10;;;10.70;98.20;;;;;;5016460;28;20483;-72
2022/02/02 11:35:29;;;;;;;1.67;1.20;;;10.90;98.20;;;;;;5027400;28;20851;-73
2022/02/02 11:37:57;;;;;;;2.03;1.83;;;11.00;98.20;;;;;;5014123;28;20482;-74
2022/02/02 11:40:25;;;;;;;1.60;1.10;;;11.10;98.20;;;;;;5026901;28;20529;-74
2022/02/02 11:42:57;;;;;;;1.67;1.10;;;11.00;98.20;;;;;;5013060;28;20479;-73
2022/02/02 11:45:39;;;;;;;1.60;1.10;;;10.90;98.20;;;;;;5024713;28;20861;-73
2022/02/02 11:48:14;;;;;;;1.60;1.10;;;10.70;98.20;;;;;;5013461;28;20494;-74
2022/02/02 11:50:51;;;;;;;1.67;1.20;;;10.50;98.20;;;;;;5025212;28;20457;-73
2022/02/02 11:53:56;;;;;;;1.60;1.10;;;10.40;98.20;;;;;;4998172;28;20506;-74
2022/02/02 11:56:27;;;;;;;1.60;1.10;;;10.30;98.20;;;;;;5014586;28;20536;-74
2022/02/02 11:58:55;;;;;;;1.70;1.30;;;10.10;98.20;;;;;;5024157;28;20528;-75
2022/02/02 12:01:38;;;;;;;1.60;1.10;;;10.10;98.20;;;;;;5015236;28;20566;-73
2022/02/02 12:04:24;;;;;;;1.70;1.30;;;10.00;98.20;;;;;;5019130;28;20494;-76
2022/02/02 12:07:04;;;;;;;1.60;1.20;;;10.00;98.20;;;;;;5013035;28;20651;-73
2022/02/02 12:09:39;;;;;;;1.67;1.10;;;9.90;98.20;;;;;;5023823;28;20459;-74
2022/02/02 12:48:41;;;;;;;1.60;1.10;;;9.90;98.20;;;;;;5015296;28;20470;-74
2022/02/02 12:56:58;;;;;;;1.67;1.20;;;9.80;98.20;;;;;;5012126;28;20491;-74
2022/02/02 13:02:16;;;;;;;1.67;1.20;;;10.10;98.20;;;;;;5010637;28;20481;-73
2022/02/02 13:04:45;;;;;;;4.47;2.63;;;10.30;98.20;;;;;;5022744;28;20471;-73
2022/02/02 13:07:15;;;;;;;1.60;1.10;;;10.50;98.20;;;;;;5015569;28;20529;-72
2022/02/02 13:09:46;;;;;;;1.60;1.20;;;10.70;98.20;;;;;;5024713;28;20578;-73
2022/02/02 13:12:22;;;;;;;1.60;1.10;;;10.70;98.20;;;;;;5011891;28;20482;-73
2022/02/02 13:17:51;;;;;;;1.60;1.10;;;10.90;98.20;;;;;;5008121;28;20483;-72
2022/02/02 13:20:36;;;;;;;1.60;1.10;;;11.00;98.20;;;;;;5026383;28;20462;-73
2022/02/02 13:23:16;;;;;;;1.60;1.10;;;11.20;98.20;;;;;;5014596;28;20494;-73
2022/02/02 13:25:50;;;;;;;1.60;1.10;;;11.40;98.20;;;;;;5025128;28;20493;-74
2022/02/02 13:28:43;;;;;;;1.63;1.10;;;11.60;98.20;;;;;;4999510;28;20491;-73
2022/02/02 13:31:28;;;;;;;1.60;1.10;;;11.60;98.20;;;;;;5017325;28;20487;-73
2022/02/02 13:34:07;;;;;;;1.60;1.10;;;11.70;98.20;;;;;;5022564;28;20794;-72
2022/02/02 13:42:54;;;;;;;1.70;1.20;;;11.90;98.20;;;;;;4977457;28;20477;-74
2022/02/02 13:48:43;;;;;;;1.60;1.10;;;11.80;98.20;;;;;;5005932;28;20499;-74
2022/02/02 13:51:29;;;;;;;1.63;1.10;;;11.70;98.20;;;;;;5037472;28;20478;-74
2022/02/02 13:54:14;;;;;;;1.60;1.00;;;11.60;98.20;;;;;;5028572;28;20472;-74
2022/02/02 14:00:20;;;;;;;1.60;1.10;;;11.40;98.20;;;;;;5028770;28;20463;-73
2022/02/02 14:11:47;;;;;;;1.60;1.00;;;11.30;98.20;;;;;;5014549;28;21235;-74
2022/02/02 14:31:08;;;;;;;1.60;1.00;;;11.10;98.20;;;;;;5027506;28;20534;-74
2022/02/02 14:33:37;;;;;;;1.60;1.10;;;11.10;98.20;;;;;;5028318;28;20970;-74
2022/02/02 14:36:06;;;;;;;1.63;1.20;;;11.00;98.20;;;;;;5024647;28;20490;-74
2022/02/02 14:38:40;;;;;;;1.63;1.13;;;11.00;98.20;;;;;;5033824;28;20553;-74
2022/02/02 14:41:14;;;;;;;1.60;1.10;;;11.00;98.20;;;;;;5015411;28;20484;-74
2022/02/02 14:43:48;;;;;;;1.60;1.10;;;10.90;98.20;;;;;;5022194;28;20477;-74
2022/02/02 14:46:18;;;;;;;1.63;1.20;;;10.90;98.20;;;;;;5011705;28;20498;-73
2022/02/02 14:48:51;;;;;;;1.60;1.20;;;10.90;98.20;;;;;;5023226;28;20493;-74
2022/02/02 14:51:28;;;;;;;1.60;1.10;;;10.90;98.20;;;;;;5014522;28;20473;-74
2022/02/02 14:54:04;;;;;;;1.60;1.10;;;10.80;98.20;;;;;;5021872;28;20524;-73
2022/02/02 15:05:15;;;;;;;1.60;1.10;;;10.80;98.20;;;;;;5018169;28;20482;-74
2022/02/02 15:30:00;;;;;;;1.60;1.20;;;10.60;98.20;;;;;;5020187;28;20466;-73
2022/02/02 15:32:30;;;;;;;1.60;1.20;;;10.50;98.20;;;;;;5010331;28;20494;-74
2022/02/02 15:34:59;;;;;;;1.60;1.10;;;10.50;98.20;;;;;;5025564;28;20470;-73
2022/02/02 15:37:31;;;;;;;1.60;1.10;;;10.40;98.20;;;;;;5010610;28;20483;-73
2022/02/02 15:40:05;;;;;;;1.60;1.10;;;10.30;98.20;;;;;;5023130;28;20895;-74
2022/02/02 15:42:45;;;;;;;1.60;1.10;;;10.20;98.20;;;;;;5008732;28;20526;-73
2022/02/02 15:59:30;;;;;;;1.60;1.10;;;9.60;98.20;;;;;;5021611;28;20459;-73
2022/02/02 16:02:08;;;;;;;1.70;1.30;;;9.50;98.20;;;;;;5010067;28;20576;-73
2022/02/02 16:04:37;;;;;;;1.67;1.30;;;9.50;98.20;;;;;;5022083;28;20470;-73
2022/02/02 16:07:06;;;;;;;1.60;1.20;;;9.40;98.20;;;;;;5010499;28;20490;-73
2022/02/02 16:09:44;;;;;;;1.60;1.17;;;9.20;98.20;;;;;;5016227;28;20820;-73
2022/02/02 16:12:16;;;;;;;1.60;1.10;;;9.20;98.20;;;;;;5009841;28;20483;-73
2022/02/02 16:14:46;;;;;;;1.63;1.20;;;9.10;98.20;;;;;;5021545;28;20473;-73
2022/02/02 16:17:34;;;;;;;1.67;1.20;;;9.00;98.20;;;;;;5007413;28;20483;-73
2022/02/02 16:31:31;;;;;;;1.60;1.20;;;8.80;98.20;;;;;;5022870;28;20466;-73
2022/02/02 16:36:40;;;;;;;1.70;1.33;;;8.40;98.20;;;;;;5010158;28;20485;-73
2022/02/02 16:39:11;;;;;;;1.67;1.33;;;8.30;98.20;;;;;;5021922;28;20467;-73
2022/02/02 16:44:24;;;;;;;1.60;1.20;;;8.20;98.20;;;;;;5020876;28;20467;-73
2022/02/02 16:46:52;;;;;;;1.60;1.20;;;8.20;98.20;;;;;;5010475;28;20483;-73
2022/02/02 16:49:20;;;;;;;1.60;1.30;;;8.10;98.20;;;;;;5023145;28;20471;-73
2022/02/02 16:51:46;;;;;;;1.60;1.30;;;8.00;98.20;;;;;;5009083;28;20487;-73
2022/02/02 16:54:20;;;;;;;1.70;1.40;;;7.90;98.20;;;;;;5020941;28;20466;-73
2022/02/02 16:57:13;;;;;;;1.60;1.20;;;7.90;98.20;;;;;;5007259;28;20727;-75
2022/02/02 17:24:59;;;;;;;1.60;1.30;;;7.30;98.20;;;;;;4985390;28;20856;-73
2022/02/02 17:30:12;;;;;;;1.60;1.27;;;7.30;98.20;;;;;;5021236;28;20995;-73
2022/02/02 17:32:48;;;;;;;1.67;1.30;;;7.20;98.20;;;;;;5009877;28;20495;-73
2022/02/02 17:35:26;;;;;;;1.60;1.30;;;7.20;98.20;;;;;;5019712;28;20494;-73
2022/02/02 17:38:01;;;;;;;1.60;1.20;;;7.20;98.20;;;;;;5008545;28;20479;-76
2022/02/02 17:40:58;;;;;;;1.70;1.30;;;7.20;98.20;;;;;;5022926;28;20545;-75
2022/02/02 18:00:45;;;;;;;1.67;1.30;;;7.10;98.20;;;;;;5020796;28;20455;-74
2022/02/02 18:19:43;;;;;;;1.60;1.27;;;6.90;98.20;;;;;;5025460;28;20509;-74
2022/02/02 18:22:10;;;;;;;1.60;1.30;;;6.90;98.20;;;;;;5015926;28;20485;-73
2022/02/02 18:24:38;;;;;;;1.67;1.40;;;7.00;98.20;;;;;;5026639;28;20491;-73
2022/02/02 18:27:13;;;;;;;1.60;1.30;;;7.00;98.20;;;;;;5007407;28;20505;-74
2022/02/02 18:29:42;;;;;;;1.60;1.30;;;7.00;98.20;;;;;;5021202;28;21061;-73
2022/02/02 18:32:19;;;;;;;1.70;1.50;;;7.00;98.20;;;;;;5012012;28;21030;-73
2022/02/02 18:34:52;;;;;;;1.60;1.30;;;7.00;98.20;;;;;;5023377;28;20966;-74
2022/02/02 18:46:26;;;;;;;1.60;1.30;;;6.90;98.20;;;;;;5091591;28;21083;-74
2022/02/02 18:49:00;;;;;;;1.60;1.30;;;6.90;98.20;;;;;;5062410;28;20529;-75
2022/02/02 18:54:33;;;;;;;1.60;1.20;;;6.90;98.20;;;;;;5080658;28;20471;-75
2022/02/02 18:57:12;;;;;;;1.60;1.30;;;7.00;98.20;;;;;;5075858;28;20512;-74
2022/02/02 19:02:42;;;;;;;1.60;1.20;;;7.10;98.20;;;;;;5070435;28;20565;-73
2022/02/02 19:05:26;;;;;;;1.60;1.30;;;7.10;98.20;;;;;;5069898;28;20468;-75
2022/02/02 19:08:07;;;;;;;1.60;1.27;;;7.10;98.20;;;;;;5076927;28;20531;-74
2022/02/02 19:39:01;;;;;;;1.60;1.27;;;7.30;98.20;;;;;;5079230;28;20810;-74
2022/02/02 19:52:44;;;;;;;1.60;1.40;;;7.50;98.20;;;;;;5073024;28;20568;-73
2022/02/02 19:55:25;;;;;;;1.60;1.20;;;7.50;98.20;;;;;;5060890;28;21012;-74
2022/02/02 20:06:23;;;;;;;1.60;1.20;;;7.60;98.20;;;;;;5051395;28;20595;-77
2022/02/02 20:09:20;;;;;;;1.60;1.30;;;7.70;98.20;;;;;;5066621;28;20515;-74
2022/02/02 20:11:45;;;;;;;1.67;1.30;;;7.70;98.20;;;;;;5055069;28;20595;-73
2022/02/02 20:14:13;;;;;;;1.60;1.20;;;7.70;98.20;;;;;;5063740;28;20476;-73
2022/02/02 20:16:40;;;;;;;1.60;1.30;;;7.70;98.20;;;;;;5052387;28;20491;-74
2022/02/02 20:19:10;;;;;;;1.60;1.20;;;7.70;98.20;;;;;;5065762;28;20529;-76
2022/02/02 20:21:46;;;;;;;1.60;1.20;;;7.80;98.20;;;;;;5056055;28;20472;-76
2022/02/02 20:24:13;;;;;;;1.60;1.30;;;7.80;98.20;;;;;;5066528;28;20614;-75
2022/02/02 20:26:41;;;;;;;1.60;1.20;;;7.80;98.20;;;;;;5053780;28;20485;-77
2022/02/02 20:29:08;;;;;;;1.60;1.30;;;7.80;98.20;;;;;;5067266;28;20493;-74
2022/02/02 20:31:35;;;;;;;1.67;1.40;;;7.80;98.20;;;;;;5052420;28;20508;-74
2022/02/02 20:34:02;;;;;;;1.60;1.20;;;7.90;98.20;;;;;;5063901;28;20465;-74
2022/02/02 20:36:29;;;;;;;1.60;1.20;;;7.90;98.20;;;;;;5053690;28;20484;-74
2022/02/02 20:38:57;;;;;;;1.60;1.20;;;7.90;98.20;;;;;;5064131;28;21091;-74
2022/02/02 20:41:24;;;;;;;1.60;1.30;;;7.90;98.20;;;;;;5052890;28;20472;-76
2022/02/02 20:43:56;;;;;;;1.60;1.30;;;7.90;98.20;;;;;;5065321;28;20531;-74
2022/02/02 20:46:44;;;;;;;1.60;1.20;;;7.90;98.20;;;;;;5048284;28;20482;-75
2022/02/02 21:00:33;;;;;;;1.60;1.20;;;8.10;98.20;;;;;;4983179;28;20972;-75
2022/02/02 21:03:18;;;;;;;1.60;1.20;;;8.10;98.20;;;;;;5047215;28;20481;-76
2022/02/02 21:06:01;;;;;;;1.60;1.20;;;8.10;98.20;;;;;;5054440;28;20488;-75
2022/02/02 21:08:45;;;;;;;1.60;1.20;;;8.20;98.20;;;;;;5039649;28;20478;-75
2022/02/02 21:11:20;;;;;;;1.60;1.20;;;8.20;98.20;;;;;;5047350;28;20577;-75
2022/02/02 21:13:52;;;;;;;1.60;1.20;;;8.20;98.20;;;;;;5063185;28;20471;-74
2022/02/02 21:16:27;;;;;;;1.60;1.20;;;8.20;98.20;;;;;;5047023;28;20538;-76
2022/02/02 21:18:56;;;;;;;1.60;1.20;;;8.20;98.20;;;;;;5061459;28;20495;-75
2022/02/02 21:21:34;;;;;;;1.60;1.30;;;8.20;98.20;;;;;;5046200;28;20473;-74
2022/02/02 21:27:04;;;;;;;1.60;1.30;;;8.30;98.20;;;;;;5052180;28;20473;-74
2022/02/02 21:29:31;;;;;;;1.60;1.27;;;8.30;98.20;;;;;;5060575;28;20462;-75
2022/02/02 21:31:58;;;;;;;1.90;1.70;;;8.30;98.20;;;;;;5049018;28;20477;-75
2022/02/02 21:34:25;;;;;;;1.60;1.20;;;8.30;98.20;;;;;;5059645;28;20933;-75
2022/02/02 21:36:54;;;;;;;1.60;1.30;;;8.30;98.20;;;;;;5044020;28;20579;-74
2022/02/02 21:39:22;;;;;;;1.60;1.30;;;8.30;98.20;;;;;;5054658;28;20473;-75
2022/02/02 21:41:52;;;;;;;1.60;1.40;;;8.30;98.20;;;;;;5056023;28;20863;-76
2022/02/02 21:44:20;;;;;;;1.70;1.30;;;8.40;98.20;;;;;;5059709;28;20575;-76